Startpagina
METAR-TAF:

METAR-TAF

Vliegvelden :

Pullman-Moscow Regional Airport

Pullman / Moscow, Washington, Verenigde Staten

breedte: 46-44-38N, lengte: 117-06-35W, hoogte: 779 m

Actueel weer

Dit bericht is 49 minuten geleden gemaakt, om 17:53 UTC
Wind 10 kt uit het oosten
Temperatuur 3°C
Vochtigheid 70%
Druk 1026 hPa
Zicht: 16.1 km
Onbewolkt

METAR: KPUW 181753Z AUTO 09010KT 10SM CLR 03/M02 A3031 RMK AO2 SLP286 T00281017 10028 21017 51004

Tijdstip: 10:42 (18:42 UTC)

Verwachting

Dit bericht is 1 uur en het 2 minuten geleden gemaakt, om 17:40 UTC
Verwachting geldig van 18 om 18 UTC tot 19 om 18 UTC
Wind 9 kt uit het oosten
Zicht: 10 km
Verspreide wolken op 25000 ft
Van 18 om 2100 UTC
Wind 4 kt uit variabele richting
Zicht: 10 km
Verspreide wolken op 25000 ft
Van 19 om 1300 UTC
Wind 9 kt uit het oosten
Zicht: 10 km
Verspreide wolken op 25000 ft

TAF: KPUW 181740Z 1818/1918 10009KT P6SM SCT250 FM182100 VRB04KT P6SM SCT250 FM191300 10009KT P6SM SCT250

Waarnemingen en weersverwachtingen van meer dan 4000 vliegvelden (METAR en TAF).

De beschikbare stations zijn de gele en rode punten op de kaart.

Ga met uw muis naar het station om de naam te zien.

Klik dan om waarnemingen en weersverwachtingen te zien.

kaart wijzigen: klik op de groene knoppen met een zwart kruis om in te zoomen, op de groene knop met een streepje om uit te zoomen of op de groene pijlen voor aangrenzende kaarten.


METAR-TAF: